createdAt,value
2022-08-12T00:11:21.987Z,99.9
2022-08-12T00:16:24.321Z,99.9
2022-08-12T00:21:29.861Z,99.9
2022-08-12T00:26:32.986Z,99.9
2022-08-12T00:31:35.459Z,99.9
2022-08-12T00:36:41.459Z,99.9
2022-08-12T00:41:46.855Z,99.9
2022-08-12T00:46:49.583Z,99.9
2022-08-12T00:51:56.719Z,99.9
2022-08-12T00:56:59.012Z,99.9
2022-08-12T01:02:14.950Z,99.9
2022-08-12T01:07:07.521Z,99.9
2022-08-12T01:12:09.949Z,99.9
2022-08-12T01:17:13.273Z,99.9
2022-08-12T01:22:15.565Z,99.9
2022-08-12T01:27:17.996Z,99.9
2022-08-12T01:32:20.587Z,99.9
2022-08-12T01:37:23.172Z,99.9
2022-08-12T01:42:25.934Z,99.9
2022-08-12T01:47:28.246Z,99.9
2022-08-12T01:52:30.479Z,99.9
2022-08-12T01:58:03.337Z,99.9
2022-08-12T02:02:36.192Z,99.9
2022-08-12T02:07:38.507Z,99.9
2022-08-12T02:12:43.009Z,99.9
2022-08-12T02:17:59.212Z,99.9
2022-08-12T02:22:52.248Z,99.9
2022-08-12T02:27:54.617Z,99.9
2022-08-12T02:32:59.086Z,99.9
2022-08-12T02:38:01.645Z,99.9
2022-08-12T02:43:03.918Z,99.9
2022-08-12T02:48:06.469Z,99.9
2022-08-12T02:53:08.790Z,99.9
2022-08-12T02:58:20.638Z,99.9
2022-08-12T03:03:15.462Z,99.9
2022-08-12T03:08:37.359Z,99.9
2022-08-12T03:13:20.493Z,99.9
2022-08-12T03:18:30.997Z,99.9
2022-08-12T03:23:33.213Z,99.9
2022-08-12T03:28:29.182Z,99.9
2022-08-12T03:33:31.789Z,99.9
2022-08-12T03:38:34.353Z,99.9
2022-08-12T03:43:36.716Z,99.9
2022-08-12T03:53:39.723Z,99.9
2022-08-12T03:58:42.851Z,99.9
2022-08-12T04:03:45.252Z,99.9
2022-08-12T04:08:47.835Z,99.9
2022-08-12T04:13:50.154Z,99.9
2022-08-12T04:18:52.488Z,99.9
2022-08-12T04:23:54.927Z,99.9
2022-08-12T04:28:57.766Z,99.9
2022-08-12T04:34:00.395Z,99.9
2022-08-12T04:39:03.445Z,99.9
2022-08-12T04:44:06.642Z,99.9
2022-08-12T04:49:09.298Z,99.9
2022-08-12T04:54:12.157Z,99.9
2022-08-12T04:59:19.566Z,99.9
2022-08-12T05:04:21.882Z,99.9
2022-08-12T05:09:59.497Z,99.9
2022-08-12T05:14:39.852Z,99.9
2022-08-12T05:19:46.928Z,99.9
2022-08-12T05:24:49.233Z,99.9
2022-08-12T05:30:11.482Z,99.9
2022-08-12T05:34:54.100Z,99.9
2022-08-12T05:39:56.935Z,99.9
2022-08-12T05:44:59.786Z,99.9
2022-08-12T05:50:02.526Z,99.9
2022-08-12T05:55:04.983Z,99.9
2022-08-12T06:00:07.317Z,99.9
2022-08-12T06:05:10.003Z,99.9
2022-08-12T06:10:12.563Z,99.9
2022-08-12T06:15:15.132Z,99.9
2022-08-12T06:20:37.919Z,99.9
2022-08-12T06:25:25.551Z,99.9
2022-08-12T06:30:41.990Z,99.9
2022-08-12T06:35:57.454Z,99.9
2022-08-12T06:40:41.034Z,99.9
2022-08-12T06:45:49.113Z,99.9
2022-08-12T06:50:51.473Z,99.9
2022-08-12T06:56:00.988Z,99.9
2022-08-12T07:01:04.291Z,99.9
2022-08-12T07:06:06.908Z,99.9
2022-08-12T07:11:09.464Z,99.9
2022-08-12T07:16:12.332Z,99.9
2022-08-12T07:21:14.989Z,99.9
2022-08-12T07:26:19.879Z,99.9
2022-08-12T07:31:22.218Z,99.9
2022-08-12T07:36:25.042Z,99.9
2022-08-12T07:41:27.859Z,99.9
2022-08-12T07:46:30.333Z,99.9
2022-08-12T07:51:33.299Z,99.9
2022-08-12T07:56:35.634Z,99.9
2022-08-12T08:01:39.183Z,99.9
2022-08-12T08:06:41.500Z,99.9
2022-08-12T08:11:44.107Z,99.9
2022-08-12T08:16:46.424Z,99.9
2022-08-12T08:21:48.953Z,99
2022-08-12T08:26:51.267Z,98.9
2022-08-12T08:31:53.758Z,97.9
2022-08-12T08:36:58.543Z,96.2
2022-08-12T08:42:22.940Z,94.9
2022-08-12T08:47:05.273Z,94.6
2022-08-12T08:52:07.886Z,92.2
2022-08-12T08:57:10.453Z,91.5
2022-08-12T09:02:13.298Z,91.2
2022-08-12T09:30:14.324Z,85
2022-08-12T09:35:29.373Z,85.1
2022-08-12T09:43:18.816Z,83.2
2022-08-12T09:46:26.689Z,82.5
2022-08-12T09:50:29.035Z,82.1
2022-08-12T09:58:46.283Z,80.9
2022-08-12T10:00:56.209Z,78.9
2022-08-12T10:06:58.002Z,78.2
2022-08-12T10:10:51.740Z,78.1
2022-08-12T10:16:22.275Z,75.7
2022-08-12T10:20:56.421Z,75
2022-08-12T10:26:41.621Z,72.4
2022-08-12T10:31:17.375Z,73.8
2022-08-12T10:36:09.642Z,73.7
2022-08-12T10:41:23.224Z,76
2022-08-12T10:46:31.813Z,74
2022-08-12T10:52:39.521Z,74.5
2022-08-12T10:56:38.992Z,73.7
2022-08-12T11:04:51.502Z,74.1
2022-08-12T11:08:48.190Z,73
2022-08-12T11:13:03.993Z,72.1
2022-08-12T11:18:03.922Z,71.6
2022-08-12T11:22:07.412Z,73.4
2022-08-12T11:27:10.655Z,70.6
2022-08-12T11:32:05.432Z,71
2022-08-12T11:37:28.157Z,71.2
2022-08-12T11:42:16.220Z,73.7
2022-08-12T11:47:18.598Z,74.2
2022-08-12T11:52:59.425Z,76.3
2022-08-12T12:02:34.644Z,69
2022-08-12T12:08:54.179Z,71.8
2022-08-12T12:12:53.322Z,74.1
2022-08-12T12:17:58.790Z,77.3
2022-08-12T12:23:01.810Z,76.7
2022-08-12T12:28:39.403Z,74.5
2022-08-12T12:33:19.801Z,71.5
2022-08-12T12:38:16.186Z,71.3
2022-08-12T12:43:47.558Z,72.3
2022-08-12T12:48:29.322Z,72.1
2022-08-12T12:54:12.253Z,69.6
2022-08-12T12:58:36.061Z,68.8
2022-08-12T13:03:52.247Z,70.3
2022-08-12T13:08:49.548Z,71.4
2022-08-12T13:14:32.319Z,75.1
2022-08-12T13:18:49.283Z,76.6
2022-08-12T13:23:51.707Z,76.6
2022-08-12T13:28:58.535Z,77.4
2022-08-12T13:34:39.195Z,77.3
2022-08-12T13:39:01.902Z,77.3
2022-08-12T13:44:04.202Z,77.3
2022-08-12T13:49:08.005Z,76.3
2022-08-12T13:54:16.152Z,78.1
2022-08-12T13:59:26.565Z,77.8
2022-08-12T14:04:23.159Z,77.1
2022-08-12T14:09:35.762Z,76.5
2022-08-12T14:14:36.865Z,74.5
2022-08-12T14:19:52.824Z,74.3
2022-08-12T14:24:41.658Z,74.5
2022-08-12T14:30:29.907Z,74.8
2022-08-12T14:39:54.407Z,75.9
2022-08-12T14:45:08.055Z,77.9
2022-08-12T14:57:19.760Z,77.2
2022-08-12T15:00:30.668Z,77.3
2022-08-12T15:06:53.695Z,76.7
2022-08-12T15:15:45.688Z,75.2
2022-08-12T15:20:41.125Z,73.9
2022-08-12T15:26:03.140Z,74.4
2022-08-12T15:30:48.717Z,73.8
2022-08-12T15:35:56.894Z,74.2
2022-08-12T15:41:02.408Z,74
2022-08-12T15:46:05.123Z,74.8
2022-08-12T15:51:19.665Z,75.6
2022-08-12T15:56:21.050Z,75.9
2022-08-12T16:01:21.070Z,75.1
2022-08-12T16:07:11.422Z,75.4
2022-08-12T16:11:44.408Z,75
2022-08-12T16:16:43.750Z,75
2022-08-12T16:22:12.868Z,76
2022-08-12T16:27:00.847Z,76.4
2022-08-12T16:31:51.898Z,75.1
2022-08-12T16:36:56.763Z,76.6
2022-08-12T16:42:04.989Z,77.3
2022-08-12T16:48:04.868Z,77.8
2022-08-12T16:52:17.433Z,77.8
2022-08-12T16:57:12.586Z,77.9
2022-08-12T17:02:36.240Z,78.2
2022-08-12T17:07:20.097Z,78.4
2022-08-12T17:12:26.674Z,79.4
2022-08-12T17:18:44.090Z,80.1
2022-08-12T17:22:33.073Z,80.7
2022-08-12T17:27:39.185Z,81.3
2022-08-12T17:32:54.683Z,81.9
2022-08-12T17:37:47.376Z,81.9
2022-08-12T17:42:51.240Z,83.9
2022-08-12T17:48:08.168Z,85
2022-08-12T17:53:03.734Z,86
2022-08-12T17:58:01.064Z,86.8
2022-08-12T18:03:04.277Z,87.6
2022-08-12T18:08:13.653Z,88.4
2022-08-12T18:13:44.953Z,90.8
2022-08-12T18:18:34.861Z,91.6
2022-08-12T18:23:31.270Z,91.7
2022-08-12T18:28:35.145Z,91.2
2022-08-12T18:33:48.509Z,91
2022-08-12T18:38:51.093Z,91.5
2022-08-12T18:44:04.601Z,91.5
2022-08-12T18:48:56.038Z,91.7
2022-08-12T18:54:10.282Z,92.1
2022-08-12T18:59:06.331Z,91.9
2022-08-12T19:04:09.512Z,91.9
2022-08-12T19:09:13.336Z,91.7
2022-08-12T19:14:21.462Z,92.1
2022-08-12T19:19:22.049Z,92.8
2022-08-12T19:24:28.205Z,93.3
2022-08-12T19:30:09.173Z,93.6
2022-08-12T19:36:26.558Z,94.3
2022-08-12T19:40:34.814Z,94.4
2022-08-12T19:44:55.062Z,94.2
2022-08-12T19:49:52.082Z,93.9
2022-08-12T19:55:00.379Z,94.1
2022-08-12T20:00:06.956Z,93.7
2022-08-12T20:06:27.081Z,93.6
2022-08-12T20:10:23.143Z,93.7
2022-08-12T20:15:18.016Z,93.7
2022-08-12T20:20:36.202Z,94.2
2022-08-12T20:26:10.461Z,93.4
2022-08-12T20:31:02.361Z,93.5
2022-08-12T20:36:46.162Z,93.4
2022-08-12T20:40:41.330Z,93.5
2022-08-12T20:45:59.639Z,93.6
2022-08-12T20:50:55.167Z,93.4
2022-08-12T20:55:59.833Z,93.2
2022-08-12T21:00:56.134Z,93.1
2022-08-12T21:06:16.407Z,93.2
2022-08-12T21:11:02.186Z,93.2
2022-08-12T21:16:05.695Z,93.6
2022-08-12T21:21:51.295Z,93.2
2022-08-12T21:26:19.693Z,93.7
2022-08-12T21:32:43.336Z,93.6
2022-08-12T21:36:43.254Z,93.4
2022-08-12T21:41:36.358Z,93.7
2022-08-12T21:46:39.920Z,93.6
2022-08-12T21:51:53.220Z,93.5
2022-08-12T21:56:47.984Z,93.4
2022-08-12T22:01:52.613Z,93.6
2022-08-12T22:07:00.106Z,93.8
2022-08-12T22:12:04.072Z,94.2
2022-08-12T22:17:20.987Z,94.4
2022-08-12T22:22:17.231Z,94.7
2022-08-12T22:27:35.801Z,95.1
2022-08-12T22:32:34.534Z,95.5
2022-08-12T22:37:48.185Z,96
2022-08-12T22:42:44.200Z,96.5
2022-08-12T22:47:58.584Z,97.2
2022-08-12T22:52:52.962Z,97.6
2022-08-12T22:57:59.583Z,98.2
2022-08-12T23:03:07.192Z,98.6
2022-08-12T23:08:21.000Z,99.2
2022-08-12T23:13:16.585Z,99.8
2022-08-12T23:18:19.826Z,99.9
2022-08-12T23:23:25.604Z,99.9
2022-08-12T23:28:33.913Z,99.9
2022-08-12T23:34:06.017Z,99.9
2022-08-12T23:38:46.086Z,99.9
2022-08-12T23:43:51.912Z,99.9
2022-08-12T23:48:53.907Z,99.9
2022-08-12T23:54:01.227Z,99.9
2022-08-12T23:59:03.636Z,99.9
